Chiriac, Romania

5:24 AM EET on February 08, 2016 (GMT +0200)
Baneasa | | Change Station
CLOSE
Current Station
Airport
Location: Bucharest,
Elevation: 299 ft
Nearby Weather Stations

Elev 299 ft 44.50 °N, 26.08 °E | Updated 24 minutes ago

Patches of Fog
Patches Fog Mist
27 °F
Feels Like 27 °F
N
1
Wind Variable Wind from ENE

Today
High -- | Low -- °F
--% Chance of Precip.
Yesterday
High -- | Low -- °F
Precip. -- in
Pressure 30.24 in
Visibility 1.6 miles
Clouds
Dew Point 25 °F
Humidity 93%
Rainfall 0.00 in
Snow Depth Not available.
7:23 AM 5:32 PM
Waning Crescent, 0% visible
METAR LRBS 080300Z 06001KT 2500 BCFG BR NSC M03/M04 Q1024 RMK R07/19//95 TEMPO 0800 FZFG
Pressure 30.24 in
Visibility 1.6 miles
Clouds
Dew Point 25 °F
Humidity 93%
Rainfall 0.00 in
Snow Depth Not available.
7:23 AM 5:32 PM
Waning Crescent, 0% visible
METAR LRBS 080300Z 06001KT 2500 BCFG BR NSC M03/M04 Q1024 RMK R07/19//95 TEMPO 0800 FZFG

10-Day Weather Forecast

Almanac

Astronomy

Feb. 08, 2016 Rise Set
Actual Time
Civil Twilight
Nautical Twilight
Astronomical Twilight
Moon
Length of Visible Light
Length of Day
Tomorrow will be .
, % of the Moon is Illuminated

Today's Extremes

Country Highs Country Lows

Community

WunderPhotos

Upload Photos

1,891,377 photos uploaded!

WunderBlog® & News

Nearby

Air Quality

  Air Quality AQ Index Pollutant
Not available.

Snow Depth

Station Depth Elevation

Earthquake Activity

City Distance Mag. Time & Date
Minimum magnitude displayed is 2.5.

Coastal Water Temperatures

Place Temperature

Stations

Nearby Weather Stations

Station Location Temp. Windchill Dew Point Humidity Wind Precip. Elev Updated Type